createdAt,value
2023-02-03T00:02:00.506Z,0.70
2023-02-03T00:04:27.667Z,0.90
2023-02-03T00:06:54.822Z,1.20
2023-02-03T00:09:22.008Z,0.80
2023-02-03T00:11:49.305Z,1.15
2023-02-03T00:14:17.271Z,1.05
2023-02-03T00:16:44.443Z,0.95
2023-02-03T00:19:11.634Z,0.88
2023-02-03T00:21:38.707Z,0.90
2023-02-03T00:24:06.033Z,0.80
2023-02-03T00:26:33.141Z,0.95
2023-02-03T00:29:00.854Z,0.77
2023-02-03T00:31:28.108Z,1.00
2023-02-03T00:33:56.227Z,0.90
2023-02-03T00:36:23.684Z,0.90
2023-02-03T00:38:51.178Z,1.00
2023-02-03T00:41:18.664Z,1.15
2023-02-03T00:43:45.801Z,0.80
2023-02-03T00:46:13.216Z,1.45
2023-02-03T00:48:40.399Z,1.02
2023-02-03T00:51:07.494Z,1.10
2023-02-03T00:53:34.575Z,1.42
2023-02-03T00:56:01.692Z,1.00
2023-02-03T00:58:28.800Z,0.98
2023-02-03T01:00:59.071Z,0.80
2023-02-03T01:03:26.167Z,1.38
2023-02-03T01:05:53.276Z,1.00
2023-02-03T01:08:20.598Z,0.82
2023-02-03T01:10:47.706Z,1.00
2023-02-03T01:13:14.828Z,0.80
2023-02-03T01:15:48.688Z,0.80
2023-02-03T01:18:16.220Z,0.80
2023-02-03T01:20:43.313Z,0.70
2023-02-03T01:23:10.390Z,0.90
2023-02-03T01:25:37.475Z,0.90
2023-02-03T01:28:06.023Z,0.90
2023-02-03T01:30:33.233Z,0.90
2023-02-03T01:33:00.381Z,0.82
2023-02-03T01:35:27.520Z,0.90
2023-02-03T01:37:54.599Z,0.82
2023-02-03T01:40:21.716Z,0.80
2023-02-03T01:42:48.829Z,0.80
2023-02-03T01:45:15.903Z,1.02
2023-02-03T01:47:49.157Z,0.85
2023-02-03T01:50:25.158Z,0.73
2023-02-03T01:52:54.425Z,0.70
2023-02-03T01:55:24.158Z,1.10
2023-02-03T01:57:56.664Z,0.50
2023-02-03T02:00:24.234Z,0.60
2023-02-03T02:02:51.919Z,0.90
2023-02-03T02:05:24.843Z,0.70
2023-02-03T02:07:52.199Z,0.70
2023-02-03T02:10:19.337Z,0.60
2023-02-03T02:12:46.549Z,0.70
2023-02-03T02:15:13.792Z,0.77
2023-02-03T02:17:46.788Z,1.05
2023-02-03T02:20:32.488Z,0.82
2023-02-03T02:23:12.262Z,0.70
2023-02-03T02:25:42.215Z,0.52
2023-02-03T02:28:09.500Z,0.60
2023-02-03T02:30:55.343Z,0.60
2023-02-03T02:33:26.473Z,0.90
2023-02-03T02:35:58.875Z,0.65
2023-02-03T02:38:32.098Z,1.00
2023-02-03T02:41:04.970Z,0.82
2023-02-03T02:43:48.291Z,0.70
2023-02-03T02:46:17.139Z,0.70
2023-02-03T02:48:50.362Z,0.80
2023-02-03T02:51:17.796Z,0.90
2023-02-03T02:53:50.218Z,0.90
2023-02-03T02:56:17.796Z,0.90
2023-02-03T02:58:47.233Z,1.30
2023-02-03T03:01:14.452Z,0.70
2023-02-03T03:03:44.195Z,0.70
2023-02-03T03:06:23.964Z,0.77
2023-02-03T03:08:57.079Z,0.80
2023-02-03T03:11:26.781Z,0.70
2023-02-03T03:13:54.651Z,0.80
2023-02-03T03:16:24.615Z,0.80
2023-02-03T03:19:03.331Z,0.60
2023-02-03T03:21:38.260Z,0.88
2023-02-03T03:24:08.829Z,0.65
2023-02-03T03:26:54.370Z,0.60
2023-02-03T03:29:23.480Z,1.10
2023-02-03T03:31:50.854Z,0.80
2023-02-03T03:34:18.241Z,0.70
2023-02-03T03:36:48.287Z,0.80
2023-02-03T03:39:23.518Z,0.85
2023-02-03T03:41:57.235Z,0.70
2023-02-03T03:44:28.024Z,0.80
2023-02-03T03:47:27.733Z,0.90
2023-02-03T03:52:24.542Z,1.10
2023-02-03T03:54:52.017Z,0.70
2023-02-03T03:57:21.931Z,0.60
2023-02-03T03:59:49.672Z,0.70
2023-02-03T04:02:17.956Z,0.70
2023-02-03T04:04:45.423Z,0.80
2023-02-03T04:07:15.284Z,0.80
2023-02-03T04:09:43.201Z,0.60
2023-02-03T04:12:16.591Z,0.70
2023-02-03T04:14:43.736Z,0.60
2023-02-03T04:17:10.817Z,0.80
2023-02-03T04:19:37.912Z,0.70
2023-02-03T04:22:05.001Z,0.90
2023-02-03T04:24:32.260Z,0.80
2023-02-03T04:26:59.370Z,0.47
2023-02-03T04:29:26.512Z,0.80
2023-02-03T04:31:53.691Z,0.70
2023-02-03T04:34:20.842Z,0.50
2023-02-03T04:36:47.943Z,0.70
2023-02-03T04:39:15.091Z,0.60
2023-02-03T04:41:43.794Z,0.68
2023-02-03T04:44:10.884Z,0.60
2023-02-03T04:46:38.004Z,0.65
2023-02-03T04:49:05.273Z,0.60
2023-02-03T04:51:32.343Z,0.80
2023-02-03T04:53:59.428Z,0.80
2023-02-03T04:56:26.594Z,0.60
2023-02-03T04:58:53.654Z,0.70
2023-02-03T05:01:21.981Z,0.80
2023-02-03T05:03:49.092Z,0.70
2023-02-03T05:06:16.271Z,0.68
2023-02-03T05:08:43.375Z,0.73
2023-02-03T05:11:11.658Z,0.60
2023-02-03T05:13:38.735Z,0.60
2023-02-03T05:16:08.098Z,0.60
2023-02-03T05:18:35.332Z,0.98
2023-02-03T05:21:02.415Z,0.60
2023-02-03T05:23:29.495Z,0.60
2023-02-03T05:25:56.597Z,0.73
2023-02-03T05:28:23.685Z,0.90
2023-02-03T05:30:50.839Z,0.60
2023-02-03T05:33:18.315Z,0.80
2023-02-03T05:35:45.397Z,0.50
2023-02-03T05:38:12.531Z,0.60
2023-02-03T05:40:58.638Z,0.70
2023-02-03T05:43:25.861Z,0.68
2023-02-03T05:45:53.010Z,0.75
2023-02-03T05:48:20.195Z,0.70
2023-02-03T05:50:47.289Z,0.80
2023-02-03T05:53:14.391Z,0.90
2023-02-03T05:55:41.493Z,0.70
2023-02-03T05:58:08.587Z,1.00
2023-02-03T06:00:35.745Z,0.73
2023-02-03T06:03:03.572Z,0.60
2023-02-03T06:05:31.523Z,0.68
2023-02-03T06:07:58.666Z,0.63
2023-02-03T06:10:26.520Z,0.75
2023-02-03T06:12:54.732Z,0.70
2023-02-03T06:15:21.904Z,0.75
2023-02-03T06:17:49.490Z,0.95
2023-02-03T06:20:18.071Z,0.57
2023-02-03T06:22:45.315Z,0.77
2023-02-03T06:25:14.355Z,0.52
2023-02-03T06:27:42.220Z,0.60
2023-02-03T06:30:10.069Z,0.60
2023-02-03T06:32:37.323Z,0.60
2023-02-03T06:35:04.501Z,0.80
2023-02-03T06:37:32.422Z,0.82
2023-02-03T06:39:59.527Z,0.85
2023-02-03T06:42:26.603Z,0.60
2023-02-03T06:44:55.060Z,0.52
2023-02-03T06:47:22.307Z,0.70
2023-02-03T06:49:49.728Z,0.80
2023-02-03T06:52:16.971Z,0.80
2023-02-03T06:54:51.987Z,0.95
2023-02-03T06:57:20.728Z,0.90
2023-02-03T06:59:47.874Z,0.60
2023-02-03T07:02:15.025Z,0.82
2023-02-03T07:04:45.003Z,0.70
2023-02-03T07:07:12.617Z,0.65
2023-02-03T07:09:40.258Z,0.70
2023-02-03T07:12:08.007Z,0.80
2023-02-03T07:14:39.523Z,0.70
2023-02-03T07:17:07.314Z,0.93
2023-02-03T07:19:34.514Z,0.77
2023-02-03T07:22:01.634Z,0.60
2023-02-03T07:24:28.699Z,0.73
2023-02-03T07:26:57.062Z,0.73
2023-02-03T07:29:24.357Z,0.68
2023-02-03T07:31:51.589Z,0.60
2023-02-03T07:34:18.857Z,0.70
2023-02-03T07:36:45.956Z,0.57
2023-02-03T07:39:13.029Z,0.70
2023-02-03T07:41:40.195Z,0.50
2023-02-03T07:44:09.417Z,0.57
2023-02-03T07:46:39.761Z,0.70
2023-02-03T07:49:07.146Z,0.68
2023-02-03T07:51:34.263Z,0.47
2023-02-03T07:54:01.348Z,0.70
2023-02-03T07:56:30.023Z,0.73
2023-02-03T07:58:57.124Z,0.70
2023-02-03T08:01:24.312Z,0.60
2023-02-03T08:03:53.576Z,0.65
2023-02-03T08:06:21.360Z,0.73
2023-02-03T08:08:48.491Z,0.77
2023-02-03T08:11:15.928Z,0.63
2023-02-03T08:13:43.409Z,0.70
2023-02-03T08:16:10.573Z,0.60
2023-02-03T08:18:37.738Z,0.57
2023-02-03T08:21:05.025Z,0.70
2023-02-03T08:23:32.131Z,0.80
2023-02-03T08:25:59.533Z,0.70
2023-02-03T08:28:26.667Z,0.50
2023-02-03T08:30:53.838Z,0.55
2023-02-03T08:33:20.964Z,0.68
2023-02-03T08:35:49.282Z,0.45
2023-02-03T08:38:16.724Z,0.70
2023-02-03T08:40:43.980Z,0.60
2023-02-03T08:43:11.355Z,0.63
2023-02-03T08:45:40.170Z,0.40
2023-02-03T08:48:08.063Z,0.52
2023-02-03T08:50:35.216Z,0.70
2023-02-03T08:53:02.715Z,0.50
2023-02-03T08:55:30.125Z,0.85
2023-02-03T08:57:57.406Z,0.68
2023-02-03T09:00:24.562Z,0.60
2023-02-03T09:02:51.964Z,0.80
2023-02-03T09:05:19.208Z,0.60
2023-02-03T09:07:46.479Z,0.68
2023-02-03T09:10:13.894Z,0.82
2023-02-03T09:12:41.010Z,0.60
2023-02-03T09:15:08.417Z,0.60
2023-02-03T09:17:36.073Z,0.85
2023-02-03T09:20:03.354Z,0.50
2023-02-03T09:22:30.519Z,0.70
2023-02-03T09:24:57.827Z,0.73
2023-02-03T09:27:24.961Z,0.77
2023-02-03T09:29:52.432Z,0.60
2023-02-03T09:32:19.585Z,0.70
2023-02-03T09:34:46.679Z,0.80
2023-02-03T09:37:13.940Z,0.70
2023-02-03T09:39:41.224Z,1.00
2023-02-03T09:42:25.746Z,0.77
2023-02-03T09:44:55.944Z,0.57
2023-02-03T09:47:25.762Z,0.80
2023-02-03T09:49:54.717Z,0.60
2023-02-03T09:54:53.188Z,0.57
2023-02-03T09:57:27.435Z,1.17
2023-02-03T09:59:56.444Z,0.50
2023-02-03T10:02:34.533Z,0.65
2023-02-03T10:05:08.834Z,0.70
2023-02-03T10:07:55.699Z,0.63
2023-02-03T10:10:27.108Z,0.60
2023-02-03T10:13:00.558Z,0.82
2023-02-03T10:15:44.930Z,0.60
2023-02-03T10:18:18.281Z,0.75
2023-02-03T10:20:50.923Z,0.68
2023-02-03T10:23:20.977Z,0.52
2023-02-03T10:25:49.913Z,0.70
2023-02-03T10:30:46.885Z,0.80
2023-02-03T10:33:16.494Z,1.35
2023-02-03T10:35:46.356Z,0.80
2023-02-03T10:38:16.391Z,0.70
2023-02-03T10:40:43.534Z,0.90
2023-02-03T10:43:30.287Z,1.10
2023-02-03T10:45:59.651Z,0.90
2023-02-03T10:48:26.752Z,0.93
2023-02-03T10:50:54.551Z,0.85
2023-02-03T10:53:33.734Z,0.80
2023-02-03T10:56:06.289Z,0.90
2023-02-03T10:58:34.202Z,1.05
2023-02-03T11:01:12.294Z,0.88
2023-02-03T11:03:41.827Z,1.30
2023-02-03T11:06:11.998Z,1.10
2023-02-03T11:08:44.663Z,1.10
2023-02-03T11:11:16.722Z,1.33
2023-02-03T11:13:43.887Z,0.80
2023-02-03T11:16:18.108Z,0.95
2023-02-03T11:18:48.229Z,0.80
2023-02-03T11:21:30.797Z,1.27
2023-02-03T11:24:16.587Z,0.70
2023-02-03T11:26:46.742Z,0.70
2023-02-03T11:29:24.017Z,0.93
2023-02-03T11:31:52.827Z,1.00
2023-02-03T11:34:23.955Z,0.68
2023-02-03T11:36:51.337Z,0.90
2023-02-03T11:39:24.627Z,0.75
2023-02-03T11:41:51.841Z,0.90
2023-02-03T11:44:24.064Z,0.80
2023-02-03T11:46:52.959Z,0.93
2023-02-03T11:51:58.704Z,0.70
2023-02-03T11:54:25.781Z,0.65
2023-02-03T11:57:11.926Z,1.00
2023-02-03T11:59:49.038Z,0.80
2023-02-03T12:02:54.995Z,0.90
2023-02-03T12:05:37.402Z,1.10
2023-02-03T12:08:23.229Z,0.80
2023-02-03T12:10:57.818Z,0.70
2023-02-03T12:13:38.285Z,0.90
2023-02-03T12:16:38.186Z,1.38
2023-02-03T12:19:13.113Z,0.50
2023-02-03T12:22:18.351Z,0.80
2023-02-03T12:24:53.774Z,0.95
2023-02-03T12:27:42.927Z,0.63
2023-02-03T12:30:20.798Z,0.80
2023-02-03T12:32:52.378Z,0.90
2023-02-03T12:35:22.681Z,0.80
2023-02-03T12:38:07.725Z,0.95
2023-02-03T12:40:34.848Z,0.60
2023-02-03T12:43:24.814Z,0.82
2023-02-03T12:45:54.163Z,0.90
2023-02-03T12:48:23.692Z,0.68
2023-02-03T12:50:56.976Z,0.85
2023-02-03T12:53:30.563Z,0.65
2023-02-03T12:56:04.333Z,0.88
2023-02-03T12:58:37.595Z,0.73
2023-02-03T13:01:10.837Z,0.80
2023-02-03T13:03:43.458Z,0.90
2023-02-03T13:06:16.172Z,0.90
2023-02-03T13:08:56.955Z,0.95
2023-02-03T13:11:29.381Z,1.10
2023-02-03T13:13:59.587Z,0.60
2023-02-03T13:16:33.637Z,0.93
2023-02-03T13:19:04.276Z,0.80
2023-02-03T13:21:31.828Z,0.88
2023-02-03T13:23:59.460Z,0.70
2023-02-03T13:26:26.798Z,0.77
2023-02-03T13:29:03.078Z,0.70
2023-02-03T13:31:39.320Z,0.82
2023-02-03T13:34:06.539Z,0.93
2023-02-03T13:36:52.524Z,0.60
2023-02-03T13:39:29.063Z,0.77
2023-02-03T13:42:08.001Z,0.70
2023-02-03T13:44:35.810Z,1.15
2023-02-03T13:47:03.001Z,0.80
2023-02-03T13:49:35.872Z,0.70
2023-02-03T13:52:03.659Z,0.70
2023-02-03T13:54:30.735Z,0.85
2023-02-03T13:57:02.642Z,0.80
2023-02-03T13:59:31.856Z,1.00
2023-02-03T14:02:17.579Z,0.85
2023-02-03T14:04:47.833Z,0.70
2023-02-03T14:07:34.854Z,0.60
2023-02-03T14:10:16.907Z,0.90
2023-02-03T14:12:50.078Z,0.90
2023-02-03T14:15:26.739Z,0.68
2023-02-03T14:17:54.239Z,0.70
2023-02-03T14:20:27.322Z,0.82
2023-02-03T14:22:56.552Z,0.80
2023-02-03T14:25:24.680Z,0.68
2023-02-03T14:28:21.485Z,0.82
2023-02-03T14:31:05.401Z,1.45
2023-02-03T14:33:46.412Z,0.70
2023-02-03T14:36:28.874Z,1.10
2023-02-03T14:38:56.880Z,0.70
2023-02-03T14:41:29.438Z,0.70
2023-02-03T14:43:59.699Z,0.60
2023-02-03T14:46:36.584Z,0.50
2023-02-03T14:49:18.379Z,0.73
2023-02-03T14:52:03.648Z,0.63
2023-02-03T14:54:39.674Z,0.60
2023-02-03T14:57:23.324Z,0.57
2023-02-03T15:00:01.982Z,0.70
2023-02-03T15:02:31.302Z,0.70
2023-02-03T15:05:14.082Z,0.60
2023-02-03T15:07:49.994Z,0.60
2023-02-03T15:10:18.744Z,0.70
2023-02-03T15:12:49.785Z,0.60
2023-02-03T15:15:22.076Z,0.70
2023-02-03T15:17:50.506Z,0.50
2023-02-03T15:20:43.824Z,0.70
2023-02-03T15:23:28.797Z,0.43
2023-02-03T15:26:26.735Z,0.65
2023-02-03T15:29:16.019Z,0.65
2023-02-03T15:31:53.119Z,0.60
2023-02-03T15:34:37.728Z,1.02
2023-02-03T15:37:09.218Z,0.55
2023-02-03T15:39:49.098Z,0.60
2023-02-03T15:42:36.483Z,0.98
2023-02-03T15:47:36.549Z,0.65
2023-02-03T15:50:07.136Z,0.60
2023-02-03T15:52:36.990Z,0.70
2023-02-03T15:55:11.118Z,0.88
2023-02-03T15:57:38.337Z,0.63
2023-02-03T16:00:20.232Z,0.75
2023-02-03T16:02:47.504Z,0.70
2023-02-03T16:05:39.354Z,0.80
2023-02-03T16:08:25.751Z,0.70
2023-02-03T16:10:52.891Z,0.70
2023-02-03T16:13:27.482Z,0.50
2023-02-03T16:16:08.160Z,0.80
2023-02-03T16:18:36.858Z,0.90
2023-02-03T16:21:05.172Z,0.60
2023-02-03T16:23:32.895Z,0.80
2023-02-03T16:26:06.112Z,0.70
2023-02-03T16:28:52.062Z,0.80
2023-02-03T16:31:39.281Z,0.60
2023-02-03T16:34:38.307Z,0.88
2023-02-03T16:37:40.012Z,0.70
2023-02-03T16:40:26.167Z,0.70
2023-02-03T16:43:12.052Z,0.70
2023-02-03T16:45:58.159Z,0.75
2023-02-03T16:48:44.023Z,0.80
2023-02-03T16:51:17.877Z,0.63
2023-02-03T16:53:45.861Z,0.80
2023-02-03T16:56:13.754Z,0.60
2023-02-03T16:58:41.672Z,0.65
2023-02-03T17:01:11.700Z,0.63
2023-02-03T17:03:39.409Z,0.70
2023-02-03T17:06:08.480Z,0.70
2023-02-03T17:08:35.672Z,0.82
2023-02-03T17:11:04.432Z,0.65
2023-02-03T17:13:31.803Z,0.70
2023-02-03T17:15:59.097Z,0.90
2023-02-03T17:18:26.700Z,1.13
2023-02-03T17:20:53.981Z,1.15
2023-02-03T17:23:21.404Z,0.88
2023-02-03T17:25:50.035Z,1.20
2023-02-03T17:28:17.982Z,1.10
2023-02-03T17:30:45.523Z,1.10
2023-02-03T17:33:12.822Z,1.33
2023-02-03T17:35:41.031Z,1.67
2023-02-03T17:38:08.512Z,0.90
2023-02-03T17:54:19.250Z,1.10
2023-02-03T17:56:48.427Z,1.42
2023-02-03T17:59:15.930Z,1.85
2023-02-03T18:01:43.907Z,1.10
2023-02-03T18:04:11.213Z,1.27
2023-02-03T18:06:39.418Z,1.85
2023-02-03T18:09:07.987Z,1.73
2023-02-03T18:11:35.820Z,1.30
2023-02-03T18:14:04.843Z,1.85
2023-02-03T18:16:33.508Z,1.35
2023-02-03T18:19:02.228Z,1.23
2023-02-03T18:21:32.226Z,1.58
2023-02-03T18:24:02.479Z,2.08
2023-02-03T18:26:34.467Z,1.58
2023-02-03T18:29:01.886Z,1.30
2023-02-03T18:31:29.858Z,1.33
2023-02-03T18:34:01.363Z,1.30
2023-02-03T18:36:31.340Z,1.40
2023-02-03T18:38:58.801Z,1.30
2023-02-03T18:41:26.293Z,1.35
2023-02-03T18:43:53.668Z,1.08
2023-02-03T18:46:22.331Z,1.40
2023-02-03T18:48:49.639Z,0.90
2023-02-03T18:51:18.677Z,1.30
2023-02-03T18:53:47.082Z,1.00
2023-02-03T18:56:16.134Z,1.30
2023-02-03T18:58:43.417Z,1.48
2023-02-03T19:01:11.186Z,1.45
2023-02-03T19:03:38.868Z,1.08
2023-02-03T19:06:09.622Z,0.93
2023-02-03T19:08:37.211Z,1.02
2023-02-03T19:11:05.920Z,1.10
2023-02-03T19:13:33.065Z,1.42
2023-02-03T19:16:02.302Z,1.23
2023-02-03T19:18:30.762Z,1.50
2023-02-03T19:20:57.883Z,1.30
2023-02-03T19:23:25.328Z,1.67
2023-02-03T19:25:53.084Z,1.30
2023-02-03T19:28:30.455Z,1.45
2023-02-03T19:31:08.865Z,1.30
2023-02-03T19:33:36.840Z,1.10
2023-02-03T19:36:04.620Z,1.00
2023-02-03T19:38:32.224Z,1.20
2023-02-03T19:41:01.501Z,1.20
2023-02-03T19:43:29.012Z,1.10
2023-02-03T19:45:56.477Z,1.30
2023-02-03T19:48:23.652Z,1.40
2023-02-03T19:50:50.843Z,1.20
2023-02-03T19:53:18.403Z,1.35
2023-02-03T19:55:46.254Z,1.42
2023-02-03T19:58:13.971Z,1.40
2023-02-03T20:00:41.793Z,1.10
2023-02-03T20:03:09.111Z,1.65
2023-02-03T20:05:36.351Z,1.58
2023-02-03T20:08:03.997Z,1.20
2023-02-03T20:10:32.499Z,1.67
2023-02-03T20:12:59.996Z,1.33
2023-02-03T20:15:27.569Z,1.20
2023-02-03T20:17:54.879Z,1.42
2023-02-03T20:20:22.478Z,1.38
2023-02-03T20:22:53.236Z,1.27
2023-02-03T20:25:21.007Z,1.33
2023-02-03T20:27:48.273Z,1.30
2023-02-03T20:30:15.490Z,1.40
2023-02-03T20:32:42.716Z,1.35
2023-02-03T20:35:10.198Z,1.20
2023-02-03T20:37:37.646Z,1.23
2023-02-03T20:40:11.122Z,1.15
2023-02-03T20:42:38.321Z,1.33
2023-02-03T20:45:10.379Z,1.13
2023-02-03T20:47:37.609Z,1.50
2023-02-03T20:50:07.410Z,1.55
2023-02-03T20:52:34.511Z,1.40
2023-02-03T20:55:01.680Z,1.33
2023-02-03T20:57:28.918Z,1.40
2023-02-03T20:59:56.035Z,1.10
2023-02-03T21:02:33.598Z,1.13
2023-02-03T21:05:02.244Z,1.30
2023-02-03T21:07:30.907Z,1.25
2023-02-03T21:10:00.004Z,0.90
2023-02-03T21:12:29.287Z,1.13
2023-02-03T21:14:57.132Z,1.27
2023-02-03T21:17:26.143Z,1.30
2023-02-03T21:19:54.146Z,1.27
2023-02-03T21:22:23.141Z,1.42
2023-02-03T21:24:51.796Z,1.30
2023-02-03T21:27:32.050Z,1.40
2023-02-03T21:30:00.185Z,1.52
2023-02-03T21:32:38.617Z,1.20
2023-02-03T21:35:19.902Z,1.27
2023-02-03T21:37:47.102Z,1.05
2023-02-03T21:40:24.623Z,1.63
2023-02-03T21:42:52.048Z,1.50
2023-02-03T21:45:22.501Z,1.30
2023-02-03T21:47:51.968Z,1.90
2023-02-03T21:50:28.066Z,1.35
2023-02-03T21:52:55.309Z,1.67
2023-02-03T21:55:22.513Z,1.60
2023-02-03T21:57:50.557Z,1.70
2023-02-03T22:00:36.515Z,1.55
2023-02-03T22:03:08.154Z,1.27
2023-02-03T22:05:35.898Z,1.10
2023-02-03T22:08:19.771Z,1.48
2023-02-03T22:10:47.033Z,1.63
2023-02-03T22:13:14.732Z,1.45
2023-02-03T22:15:42.540Z,1.48
2023-02-03T22:18:09.905Z,1.48
2023-02-03T22:20:37.087Z,1.15
2023-02-03T22:23:05.943Z,1.45
2023-02-03T22:25:33.190Z,1.10
2023-02-03T22:28:00.593Z,1.15
2023-02-03T22:30:27.927Z,1.00
2023-02-03T22:32:55.189Z,1.52
2023-02-03T22:35:22.314Z,1.20
2023-02-03T22:37:50.363Z,1.30
2023-02-03T22:40:17.905Z,1.40
2023-02-03T22:42:45.089Z,1.52
2023-02-03T22:45:12.849Z,1.48
2023-02-03T22:47:39.932Z,1.20
2023-02-03T22:50:08.291Z,1.33
2023-02-03T22:52:35.558Z,1.60
2023-02-03T22:55:02.979Z,1.52
2023-02-03T22:57:30.080Z,1.52
2023-02-03T22:59:57.228Z,1.30
2023-02-03T23:02:24.389Z,1.23
2023-02-03T23:04:51.686Z,1.30
2023-02-03T23:07:19.193Z,1.25
2023-02-03T23:09:46.309Z,1.40
2023-02-03T23:12:13.419Z,1.75
2023-02-03T23:14:40.496Z,1.40
2023-02-03T23:17:07.676Z,1.20
2023-02-03T23:19:34.869Z,1.30
2023-02-03T23:22:02.200Z,1.30
2023-02-03T23:24:30.510Z,1.50
2023-02-03T23:26:57.655Z,1.20
2023-02-03T23:29:24.846Z,1.20
2023-02-03T23:31:52.104Z,1.30
2023-02-03T23:34:37.811Z,1.30
2023-02-03T23:37:05.333Z,1.50
2023-02-03T23:39:32.463Z,1.30
2023-02-03T23:41:59.640Z,1.50
2023-02-03T23:44:26.902Z,1.38
2023-02-03T23:46:54.090Z,1.13
2023-02-03T23:49:21.380Z,1.30
2023-02-03T23:51:48.482Z,1.30
2023-02-03T23:54:15.630Z,1.10
2023-02-03T23:56:42.924Z,1.27
2023-02-03T23:59:10.060Z,1.30
